createdAt,value
2023-05-25T00:01:01.220Z,21.00
2023-05-25T00:03:36.140Z,21.00
2023-05-25T00:06:10.428Z,21.00
2023-05-25T00:08:42.323Z,21.00
2023-05-25T00:11:14.781Z,21.00
2023-05-25T00:13:46.742Z,20.90
2023-05-25T00:16:19.960Z,20.90
2023-05-25T00:18:53.178Z,20.90
2023-05-25T00:21:44.293Z,20.90
2023-05-25T00:24:16.206Z,21.00
2023-05-25T00:26:48.139Z,20.90
2023-05-25T00:29:20.061Z,21.00
2023-05-25T00:31:53.153Z,21.00
2023-05-25T00:34:25.670Z,20.90
2023-05-25T00:36:57.601Z,20.90
2023-05-25T00:39:29.504Z,21.00
2023-05-25T00:42:03.189Z,21.00
2023-05-25T00:44:35.099Z,21.00
2023-05-25T00:47:07.112Z,20.90
2023-05-25T00:49:39.097Z,20.90
2023-05-25T00:52:13.128Z,20.80
2023-05-25T00:54:50.577Z,20.80
2023-05-25T00:57:46.077Z,20.90
2023-05-25T01:00:24.707Z,20.90
2023-05-25T01:02:59.350Z,20.80
2023-05-25T01:05:34.964Z,20.80
2023-05-25T01:08:08.699Z,20.70
2023-05-25T01:10:42.526Z,20.70
2023-05-25T01:13:15.831Z,20.80
2023-05-25T01:15:48.305Z,20.80
2023-05-25T01:18:20.244Z,20.80
2023-05-25T01:21:02.151Z,20.80
2023-05-25T01:23:36.798Z,20.90
2023-05-25T01:26:13.147Z,21.00
2023-05-25T01:28:51.881Z,21.00
2023-05-25T01:31:24.425Z,20.90
2023-05-25T01:33:56.894Z,20.80
2023-05-25T01:36:29.123Z,20.50
2023-05-25T01:39:01.278Z,20.20
2023-05-25T01:41:33.225Z,19.90
2023-05-25T01:44:07.752Z,19.60
2023-05-25T01:46:41.230Z,19.50
2023-05-25T01:49:31.262Z,19.10
2023-05-25T01:52:12.305Z,19.00
2023-05-25T01:54:51.626Z,18.90
2023-05-25T01:57:25.991Z,18.80
2023-05-25T02:00:00.404Z,18.60
2023-05-25T02:02:33.612Z,18.50
2023-05-25T02:05:06.083Z,18.30
2023-05-25T02:07:38.580Z,18.30
2023-05-25T02:10:10.906Z,18.30
2023-05-25T02:12:42.891Z,18.30
2023-05-25T02:15:16.569Z,18.20
2023-05-25T02:17:48.528Z,18.20
2023-05-25T02:20:20.605Z,18.00
2023-05-25T02:22:52.717Z,17.80
2023-05-25T02:25:24.622Z,17.80
2023-05-25T02:27:56.672Z,17.90
2023-05-25T02:30:28.609Z,17.80
2023-05-25T02:33:02.623Z,17.70
2023-05-25T02:35:44.459Z,17.50
2023-05-25T02:38:17.137Z,17.40
2023-05-25T02:40:49.559Z,17.40
2023-05-25T02:43:21.494Z,17.30
2023-05-25T02:45:53.460Z,17.30
2023-05-25T02:48:25.723Z,17.30
2023-05-25T02:50:57.754Z,17.30
2023-05-25T02:53:30.131Z,17.30
2023-05-25T02:56:03.983Z,17.30
2023-05-25T02:58:38.861Z,17.30
2023-05-25T05:56:05.946Z,18.90
2023-05-25T05:58:38.757Z,18.90
2023-05-25T06:01:10.896Z,19.00
2023-05-25T06:03:43.859Z,18.90
2023-05-25T06:06:17.573Z,18.90
2023-05-25T06:08:49.485Z,18.90
2023-05-25T06:11:21.579Z,18.90
2023-05-25T06:13:53.581Z,18.90
2023-05-25T06:16:25.479Z,18.90
2023-05-25T06:18:57.436Z,19.00
2023-05-25T06:21:29.448Z,19.10
2023-05-25T06:24:01.617Z,19.20
2023-05-25T06:26:33.498Z,19.20
2023-05-25T06:29:05.373Z,19.20
2023-05-25T06:31:37.936Z,19.20
2023-05-25T06:34:09.972Z,19.10
2023-05-25T06:36:42.242Z,19.10
2023-05-25T06:39:15.414Z,19.20
2023-05-25T06:41:48.282Z,19.20
2023-05-25T06:44:31.119Z,19.10
2023-05-25T06:47:07.074Z,19.10
2023-05-25T06:49:38.995Z,19.10
2023-05-25T06:52:10.999Z,19.30
2023-05-25T06:54:42.926Z,19.20
2023-05-25T06:57:14.906Z,19.30
2023-05-25T06:59:46.761Z,19.30
2023-05-25T07:02:19.676Z,19.40
2023-05-25T07:04:51.685Z,19.50
2023-05-25T07:07:23.647Z,19.60
2023-05-25T07:09:55.494Z,19.60
2023-05-25T07:12:27.353Z,19.70
2023-05-25T07:14:59.214Z,19.60
2023-05-25T07:17:31.677Z,19.70
2023-05-25T07:20:05.241Z,19.90
2023-05-25T07:22:37.264Z,19.90
2023-05-25T07:25:09.717Z,19.90
2023-05-25T07:27:42.813Z,20.00
2023-05-25T07:30:14.847Z,19.90
2023-05-25T07:32:47.063Z,20.10
2023-05-25T07:35:19.049Z,20.20
2023-05-25T07:38:02.726Z,20.40
2023-05-25T07:40:34.602Z,20.80
2023-05-25T07:43:08.394Z,21.00
2023-05-25T07:45:40.774Z,21.10
2023-05-25T07:48:12.696Z,21.50
2023-05-25T07:50:44.728Z,21.70
2023-05-25T07:53:16.651Z,21.90
2023-05-25T07:55:48.727Z,22.20
2023-05-25T07:58:20.735Z,22.20
2023-05-25T08:00:53.064Z,22.20
2023-05-25T08:03:39.915Z,21.80
2023-05-25T08:06:17.091Z,21.50
2023-05-25T08:08:50.089Z,21.60
2023-05-25T08:11:24.979Z,21.70
2023-05-25T08:13:57.061Z,21.90
2023-05-25T08:16:28.982Z,21.90
2023-05-25T08:19:01.772Z,21.70
2023-05-25T08:21:35.209Z,21.70
2023-05-25T08:24:08.562Z,21.80
2023-05-25T08:26:53.688Z,21.60
2023-05-25T08:29:26.911Z,21.60
2023-05-25T08:31:58.770Z,21.50
2023-05-25T08:34:30.774Z,21.50
2023-05-25T08:37:02.722Z,21.60
2023-05-25T08:39:35.036Z,21.60
2023-05-25T08:42:07.657Z,21.70
2023-05-25T08:44:39.706Z,21.80
2023-05-25T08:47:12.392Z,21.90
2023-05-25T08:49:45.316Z,22.10
2023-05-25T08:52:23.455Z,22.20
2023-05-25T08:54:58.536Z,22.40
2023-05-25T08:57:51.293Z,22.40
2023-05-25T09:00:31.176Z,22.50
2023-05-25T09:03:17.971Z,22.60
2023-05-25T09:05:51.079Z,22.60
2023-05-25T09:08:23.543Z,22.70
2023-05-25T09:10:57.768Z,22.60
2023-05-25T09:13:29.805Z,22.50
2023-05-25T09:16:02.318Z,22.60
2023-05-25T09:18:34.601Z,22.70
2023-05-25T09:21:06.524Z,22.70
2023-05-25T09:23:38.778Z,22.80
2023-05-25T09:26:10.810Z,22.90
2023-05-25T09:28:49.289Z,23.10
2023-05-25T09:31:23.942Z,23.30
2023-05-25T09:34:01.130Z,23.50
2023-05-25T09:36:37.209Z,23.80
2023-05-25T09:39:13.962Z,23.70
2023-05-25T09:41:46.449Z,23.60
2023-05-25T09:44:28.479Z,23.80
2023-05-25T09:47:00.522Z,24.00
2023-05-25T09:49:32.900Z,24.40
2023-05-25T09:52:06.262Z,24.80
2023-05-25T09:54:41.164Z,25.00
2023-05-25T09:57:13.222Z,25.40
2023-05-25T09:59:45.849Z,26.10
2023-05-25T10:02:17.890Z,26.60
2023-05-25T10:04:49.868Z,27.10
2023-05-25T10:07:22.477Z,27.30
2023-05-25T10:09:55.896Z,27.40
2023-05-25T10:12:29.133Z,27.70
2023-05-25T10:15:03.859Z,27.70
2023-05-25T10:17:38.724Z,27.90
2023-05-25T10:20:11.429Z,28.00
2023-05-25T10:22:59.063Z,28.00
2023-05-25T10:25:53.894Z,27.50
2023-05-25T10:28:38.029Z,27.80
2023-05-25T10:31:10.837Z,28.00
2023-05-25T10:33:47.503Z,27.90
2023-05-25T10:36:23.565Z,28.00
2023-05-25T10:38:55.714Z,27.80
2023-05-25T10:41:27.994Z,27.80
2023-05-25T10:44:01.110Z,27.90
2023-05-25T10:46:33.023Z,27.20
2023-05-25T10:49:05.889Z,26.40
2023-05-25T10:51:43.780Z,26.30
2023-05-25T10:54:16.117Z,26.40
2023-05-25T10:57:19.772Z,26.80
2023-05-25T11:00:00.738Z,26.90
2023-05-25T11:02:48.926Z,26.90
2023-05-25T11:05:26.795Z,27.00
2023-05-25T11:08:00.953Z,27.20
2023-05-25T11:10:55.406Z,27.40
2023-05-25T11:13:45.331Z,27.80
2023-05-25T11:16:35.957Z,27.80
2023-05-25T11:19:14.634Z,27.80
2023-05-25T11:21:46.714Z,27.90
2023-05-25T11:24:18.741Z,27.40
2023-05-25T11:26:58.654Z,27.00
2023-05-25T11:29:31.671Z,27.10
2023-05-25T11:32:04.081Z,27.30
2023-05-25T11:34:36.855Z,27.30
2023-05-25T11:37:10.434Z,27.40
2023-05-25T11:39:49.950Z,27.20
2023-05-25T11:42:23.618Z,27.20
2023-05-25T11:44:56.278Z,27.20
2023-05-25T11:47:30.327Z,27.30
2023-05-25T11:50:04.849Z,27.50
2023-05-25T11:52:36.832Z,27.50
2023-05-25T11:55:14.373Z,27.00
2023-05-25T11:57:46.395Z,26.40
2023-05-25T12:00:27.546Z,26.40
2023-05-25T12:03:02.166Z,26.70
2023-05-25T12:05:38.538Z,26.80
2023-05-25T12:08:10.725Z,26.60
2023-05-25T12:10:54.958Z,26.40
2023-05-25T12:13:27.220Z,26.30
2023-05-25T12:16:00.301Z,26.30
2023-05-25T12:18:32.537Z,26.30
2023-05-25T12:21:08.236Z,26.30
2023-05-25T12:23:40.427Z,26.50
2023-05-25T12:26:14.242Z,26.50
2023-05-25T12:29:03.713Z,26.60
2023-05-25T12:31:38.784Z,26.70
2023-05-25T12:34:12.241Z,26.70
2023-05-25T12:36:48.721Z,26.60
2023-05-25T12:39:29.821Z,26.70
2023-05-25T12:42:02.902Z,26.90
2023-05-25T12:44:37.116Z,27.00
2023-05-25T12:47:23.492Z,26.80
2023-05-25T12:50:13.092Z,26.70
2023-05-25T12:52:46.883Z,26.70
2023-05-25T12:55:29.570Z,26.90
2023-05-25T12:58:05.516Z,27.10
2023-05-25T13:00:39.531Z,27.00
2023-05-25T13:03:12.292Z,26.80
2023-05-25T13:05:46.643Z,26.80
2023-05-25T13:08:18.681Z,26.90
2023-05-25T13:10:51.642Z,27.10
2023-05-25T13:13:23.937Z,27.20
2023-05-25T13:15:56.018Z,26.90
2023-05-25T13:18:28.087Z,26.80
2023-05-25T13:21:00.467Z,26.70
2023-05-25T13:23:32.819Z,26.50
2023-05-25T13:26:04.780Z,26.40
2023-05-25T13:28:36.825Z,26.40
2023-05-25T13:31:08.832Z,26.60
2023-05-25T13:33:40.952Z,26.60
2023-05-25T13:36:13.267Z,26.80
2023-05-25T13:38:45.500Z,26.90
2023-05-25T13:41:18.794Z,26.80
2023-05-25T13:43:50.874Z,26.80
2023-05-25T13:46:34.149Z,26.90
2023-05-25T13:49:07.269Z,27.10
2023-05-25T13:51:39.455Z,27.20
2023-05-25T13:54:12.906Z,27.30
2023-05-25T13:56:44.885Z,27.20
2023-05-25T13:59:16.912Z,27.00
2023-05-25T14:01:48.973Z,27.20
2023-05-25T14:04:21.141Z,27.30
2023-05-25T14:06:53.145Z,27.60
2023-05-25T14:09:25.256Z,27.70
2023-05-25T14:11:57.278Z,27.90
2023-05-25T14:14:32.217Z,27.70
2023-05-25T14:17:04.978Z,27.40
2023-05-25T14:19:37.746Z,27.50
2023-05-25T14:22:13.852Z,27.50
2023-05-25T14:24:46.557Z,27.50
2023-05-25T14:27:22.810Z,27.60
2023-05-25T14:29:54.850Z,27.70
2023-05-25T14:32:27.067Z,27.60
2023-05-25T14:34:59.143Z,27.80
2023-05-25T14:37:31.232Z,27.80
2023-05-25T14:40:03.347Z,27.80
2023-05-25T14:42:35.917Z,27.90
2023-05-25T14:45:10.801Z,27.90
2023-05-25T14:47:43.439Z,27.80
2023-05-25T14:50:16.024Z,27.70
2023-05-25T14:52:48.020Z,27.80
2023-05-25T14:55:20.050Z,27.80
2023-05-25T14:57:52.000Z,27.60
2023-05-25T15:00:23.941Z,27.60
2023-05-25T15:02:56.944Z,27.70
2023-05-25T15:05:28.945Z,27.70
2023-05-25T15:08:00.873Z,27.70
2023-05-25T15:10:32.783Z,27.70
2023-05-25T15:13:04.738Z,27.70
2023-05-25T15:15:36.860Z,27.70
2023-05-25T15:18:09.044Z,27.50
2023-05-25T15:20:42.396Z,27.50
2023-05-25T15:23:14.651Z,27.60
2023-05-25T15:25:46.592Z,27.60
2023-05-25T15:28:18.695Z,27.60
2023-05-25T15:30:50.763Z,27.60
2023-05-25T15:33:25.735Z,27.60
2023-05-25T15:36:02.101Z,27.70
2023-05-25T15:38:34.121Z,27.70
2023-05-25T15:41:07.500Z,27.70
2023-05-25T15:43:39.472Z,27.70
2023-05-25T15:46:11.459Z,27.80
2023-05-25T15:48:43.478Z,27.70
2023-05-25T15:51:15.568Z,27.50
2023-05-25T15:53:48.170Z,27.40
2023-05-25T15:56:20.194Z,27.20
2023-05-25T15:58:52.954Z,27.30
2023-05-25T16:01:24.915Z,27.30
2023-05-25T16:03:56.876Z,27.10
2023-05-25T16:06:29.731Z,26.80
2023-05-25T16:09:01.650Z,26.40
2023-05-25T16:11:34.163Z,26.30
2023-05-25T16:14:06.117Z,26.30
2023-05-25T16:16:38.176Z,26.40
2023-05-25T16:19:11.695Z,26.60
2023-05-25T16:21:46.091Z,26.70
2023-05-25T16:24:18.148Z,26.80
2023-05-25T16:26:50.135Z,27.00
2023-05-25T16:29:22.119Z,26.90
2023-05-25T16:31:55.449Z,27.00
2023-05-25T16:34:28.763Z,27.10
2023-05-25T16:37:00.732Z,27.10
2023-05-25T16:39:33.381Z,27.10
2023-05-25T16:42:06.527Z,27.20
2023-05-25T16:44:38.538Z,27.20
2023-05-25T16:47:10.597Z,27.30
2023-05-25T16:49:42.538Z,27.20
2023-05-25T16:52:14.570Z,27.20
2023-05-25T16:54:46.725Z,27.20
2023-05-25T16:57:19.516Z,27.20
2023-05-25T16:59:53.754Z,26.90
2023-05-25T17:02:26.245Z,26.60
2023-05-25T17:04:58.327Z,26.30
2023-05-25T17:07:30.482Z,26.00
2023-05-25T17:10:02.587Z,25.90
2023-05-25T17:12:34.809Z,25.70
2023-05-25T17:15:11.360Z,25.60
2023-05-25T17:17:43.929Z,25.70
2023-05-25T17:20:16.028Z,25.50
2023-05-25T17:22:49.188Z,25.50
2023-05-25T17:25:21.480Z,25.40
2023-05-25T17:27:53.535Z,25.40
2023-05-25T17:30:25.578Z,25.40
2023-05-25T17:33:01.667Z,25.30
2023-05-25T17:35:33.787Z,25.40
2023-05-25T17:38:06.959Z,25.20
2023-05-25T17:40:38.962Z,25.10
2023-05-25T17:43:11.997Z,25.10
2023-05-25T17:45:44.154Z,25.00
2023-05-25T17:48:17.966Z,24.90
2023-05-25T17:50:49.996Z,24.80
2023-05-25T17:53:22.088Z,24.70
2023-05-25T17:55:54.070Z,24.70
2023-05-25T17:58:26.064Z,24.80
2023-05-25T18:00:58.253Z,24.70
2023-05-25T18:03:31.634Z,24.70
2023-05-25T18:06:05.381Z,24.50
2023-05-25T18:08:37.346Z,24.40
2023-05-25T18:11:10.540Z,24.30
2023-05-25T18:13:42.604Z,24.30
2023-05-25T18:16:14.610Z,24.20
2023-05-25T18:18:52.587Z,24.10
2023-05-25T18:21:24.712Z,24.10
2023-05-25T18:23:56.668Z,23.90
2023-05-25T18:26:30.190Z,23.80
2023-05-25T18:29:02.888Z,23.70
2023-05-25T18:31:35.576Z,23.60
2023-05-25T18:34:07.606Z,23.50
2023-05-25T18:36:39.778Z,23.40
2023-05-25T18:39:12.278Z,23.30
2023-05-25T18:41:44.280Z,23.20
2023-05-25T18:44:17.311Z,23.20
2023-05-25T18:46:51.909Z,23.10
2023-05-25T18:49:24.468Z,23.10
2023-05-25T18:51:56.397Z,23.20
2023-05-25T18:54:29.570Z,23.30
2023-05-25T18:57:01.699Z,23.40
2023-05-25T18:59:34.370Z,23.30
2023-05-25T19:02:07.911Z,23.20
2023-05-25T19:04:45.053Z,23.10
2023-05-25T19:07:18.427Z,22.90
2023-05-25T19:09:51.123Z,22.90
2023-05-25T19:12:23.779Z,22.70
2023-05-25T19:14:59.989Z,22.50
2023-05-25T19:17:33.243Z,22.30
2023-05-25T19:20:05.796Z,22.00
2023-05-25T19:22:39.267Z,21.90
2023-05-25T19:25:13.460Z,21.70
2023-05-25T19:27:45.586Z,21.50
2023-05-25T19:30:19.066Z,21.40
2023-05-25T19:32:53.169Z,21.20
2023-05-25T19:35:25.766Z,21.10
2023-05-25T19:37:59.212Z,21.10
2023-05-25T19:40:33.041Z,21.10
2023-05-25T19:43:05.024Z,21.10
2023-05-25T19:45:37.145Z,21.10
2023-05-25T19:48:10.875Z,21.00
2023-05-25T19:50:44.258Z,21.00
2023-05-25T19:53:16.848Z,20.90
2023-05-25T19:55:48.941Z,20.90
2023-05-25T19:58:22.960Z,20.90
2023-05-25T20:00:59.797Z,20.90
2023-05-25T20:03:35.831Z,20.90
2023-05-25T20:06:10.087Z,20.80
2023-05-25T20:08:42.104Z,20.70
2023-05-25T20:11:15.752Z,20.60
2023-05-25T20:13:48.268Z,20.60
2023-05-25T20:16:22.343Z,20.60
2023-05-25T20:18:54.470Z,20.50
2023-05-25T20:21:26.921Z,20.50
2023-05-25T20:23:58.929Z,20.40
2023-05-25T20:26:30.882Z,20.30
2023-05-25T20:29:05.428Z,20.20
2023-05-25T20:31:38.785Z,20.20
2023-05-25T20:34:11.323Z,20.10
2023-05-25T20:36:43.370Z,20.10
2023-05-25T20:39:16.186Z,20.00
2023-05-25T20:41:49.344Z,20.00
2023-05-25T20:44:27.626Z,20.10
2023-05-25T20:47:00.992Z,20.10
2023-05-25T20:49:33.542Z,20.10
2023-05-25T20:52:06.238Z,20.10
2023-05-25T20:54:44.674Z,20.10
2023-05-25T20:57:16.739Z,20.10
2023-05-25T20:59:48.969Z,20.00
2023-05-25T21:02:21.012Z,20.00
2023-05-25T21:04:53.035Z,20.00
2023-05-25T21:07:27.508Z,19.90
2023-05-25T21:10:01.227Z,19.90
2023-05-25T21:12:33.243Z,19.90
2023-05-25T21:15:05.916Z,19.90
2023-05-25T21:17:39.455Z,20.00
2023-05-25T21:20:14.307Z,20.00
2023-05-25T21:22:46.360Z,20.00
2023-05-25T21:25:18.360Z,20.00
2023-05-25T21:27:51.061Z,20.00
2023-05-25T21:30:24.412Z,19.90
2023-05-25T21:32:56.624Z,19.90
2023-05-25T21:35:29.828Z,19.90
2023-05-25T21:38:01.806Z,19.90
2023-05-25T21:40:33.809Z,19.80
2023-05-25T21:43:06.601Z,19.80
2023-05-25T21:45:38.539Z,19.80
2023-05-25T21:48:10.509Z,19.90
2023-05-25T21:50:42.624Z,19.90
2023-05-25T21:53:14.692Z,19.90
2023-05-25T21:55:49.247Z,19.80
2023-05-25T21:58:21.208Z,19.80
2023-05-25T22:00:53.123Z,19.70
2023-05-25T22:03:25.055Z,19.70
2023-05-25T22:05:57.057Z,19.70
2023-05-25T22:08:28.993Z,19.70
2023-05-25T22:11:00.999Z,19.60
2023-05-25T22:13:33.115Z,19.70
2023-05-25T22:16:05.059Z,19.60
2023-05-25T22:18:38.546Z,19.50
2023-05-25T22:21:10.718Z,19.40
2023-05-25T22:23:42.615Z,19.30
2023-05-25T22:26:14.657Z,19.40
2023-05-25T22:28:46.687Z,19.40
2023-05-25T22:31:18.690Z,19.30
2023-05-25T22:33:50.646Z,19.20
2023-05-25T22:36:22.523Z,19.30
2023-05-25T22:38:54.438Z,19.30
2023-05-25T22:41:26.597Z,19.20
2023-05-25T22:43:58.522Z,19.20
2023-05-25T22:46:30.437Z,19.20
2023-05-25T22:49:02.403Z,19.00
2023-05-25T22:51:34.373Z,18.90
2023-05-25T22:54:06.318Z,18.90
2023-05-25T22:56:38.212Z,18.90
2023-05-25T22:59:10.057Z,18.90
2023-05-25T23:01:42.046Z,18.80
2023-05-25T23:04:14.231Z,18.70
2023-05-25T23:06:46.324Z,18.70
2023-05-25T23:09:18.237Z,18.70
2023-05-25T23:11:50.240Z,18.70
2023-05-25T23:14:22.117Z,18.80
2023-05-25T23:16:54.221Z,18.80
2023-05-25T23:19:26.152Z,18.80
2023-05-25T23:21:58.647Z,18.70
2023-05-25T23:24:30.670Z,18.60
2023-05-25T23:27:02.987Z,18.50
2023-05-25T23:29:34.844Z,18.50
2023-05-25T23:32:06.978Z,18.40
2023-05-25T23:34:38.892Z,18.40
2023-05-25T23:37:10.799Z,18.40
2023-05-25T23:39:42.753Z,18.50
2023-05-25T23:42:15.589Z,18.40
2023-05-25T23:44:47.474Z,18.40
2023-05-25T23:47:19.446Z,18.40
2023-05-25T23:49:51.336Z,18.40
2023-05-25T23:52:23.190Z,18.50
2023-05-25T23:54:55.073Z,18.40
2023-05-25T23:57:26.956Z,18.30
2023-05-25T23:59:58.815Z,18.20
